Gingelom, Belgium
Current Conditions -  °F | °C
As of 1:41 AM on Saturday 25 Oct 2014 (Local Time) from EBBE Reporting Station
Broken Clouds Broken Clouds  
Wind Chill: 52°   Ceiling: 1100
Heat Index: 52°   Visibility: 2.2mi
Dew Point: 50°   Wind: 12mph
Humidity: 94%   Direction: 210°SSW
Pressure: 30.03"   Gusts: NA
Location:  50.75°N, 5.13°E
Report Text: EBBE 242341Z AUTO 21010KT 3600 FEW005/// SCT009/// BKN011/// 11/10 Q1017 YLO
Loading
Personal Weather Stations






























Interactive Weather Map
Tropical Storm Tracking
New forecast layout! Learn more

10-Day Weather Forecast

Advertisements
Track Severe Weather on mobile